sensor_id;sensor_type;location;lat;lon;timestamp;pressure;altitude;pressure_sealevel;temperature;humidity
19259;BME280;9763;48.780;9.212;2023-05-10T00:02:21;97731.94;;;18.31;80.64
19259;BME280;9763;48.780;9.212;2023-05-10T00:05:49;97734.41;;;18.24;81.29
19259;BME280;9763;48.780;9.212;2023-05-10T00:09:15;97735.06;;;18.10;80.28
19259;BME280;9763;48.780;9.212;2023-05-10T00:12:41;97743.31;;;18.07;80.97
19259;BME280;9763;48.780;9.212;2023-05-10T00:16:06;97751.22;;;17.99;80.53
19259;BME280;9763;48.780;9.212;2023-05-10T00:19:31;97752.84;;;17.92;80.51
19259;BME280;9763;48.780;9.212;2023-05-10T00:22:54;97746.22;;;17.80;81.31
19259;BME280;9763;48.780;9.212;2023-05-10T00:26:19;97748.03;;;17.71;81.57
19259;BME280;9763;48.780;9.212;2023-05-10T00:29:46;97741.56;;;17.66;81.69
19259;BME280;9763;48.780;9.212;2023-05-10T00:33:10;97709.47;;;17.44;81.09
19259;BME280;9763;48.780;9.212;2023-05-10T00:36:35;97748.28;;;17.60;81.92
19259;BME280;9763;48.780;9.212;2023-05-10T00:39:59;97744.81;;;17.59;82.16
19259;BME280;9763;48.780;9.212;2023-05-10T00:43:23;97743.16;;;17.58;81.71
19259;BME280;9763;48.780;9.212;2023-05-10T00:46:47;97746.63;;;17.51;81.69
19259;BME280;9763;48.780;9.212;2023-05-10T00:50:11;97750.53;;;17.47;81.94
19259;BME280;9763;48.780;9.212;2023-05-10T00:53:37;97755.16;;;17.45;82.04
19259;BME280;9763;48.780;9.212;2023-05-10T00:57:00;97749.88;;;17.45;81.69
19259;BME280;9763;48.780;9.212;2023-05-10T01:00:25;97765.84;;;17.43;81.95
19259;BME280;9763;48.780;9.212;2023-05-10T01:03:49;97763.72;;;17.39;81.48
19259;BME280;9763;48.780;9.212;2023-05-10T01:07:13;97765.84;;;17.35;81.79
19259;BME280;9763;48.780;9.212;2023-05-10T01:10:38;97769.75;;;17.31;81.38
19259;BME280;9763;48.780;9.212;2023-05-10T01:14:03;97774.34;;;17.29;82.06
19259;BME280;9763;48.780;9.212;2023-05-10T01:17:27;97777.47;;;17.24;81.64
19259;BME280;9763;48.780;9.212;2023-05-10T01:21:06;97772.88;;;17.26;81.84
19259;BME280;9763;48.780;9.212;2023-05-10T01:25:17;97771.53;;;17.22;82.02
19259;BME280;9763;48.780;9.212;2023-05-10T01:29:13;97772.97;;;17.17;82.17
19259;BME280;9763;48.780;9.212;2023-05-10T01:32:48;97786.66;;;17.12;81.76
19259;BME280;9763;48.780;9.212;2023-05-10T01:36:24;97785.16;;;17.10;82.02
19259;BME280;9763;48.780;9.212;2023-05-10T01:40:01;97789.44;;;17.11;82.01
19259;BME280;9763;48.780;9.212;2023-05-10T01:43:32;97791.25;;;17.10;82.02
19259;BME280;9763;48.780;9.212;2023-05-10T01:47:07;97796.00;;;17.07;82.24
19259;BME280;9763;48.780;9.212;2023-05-10T01:50:38;97778.47;;;16.98;82.68
19259;BME280;9763;48.780;9.212;2023-05-10T01:54:04;97803.91;;;17.07;82.88
19259;BME280;9763;48.780;9.212;2023-05-10T01:57:35;97807.38;;;17.07;82.51
19259;BME280;9763;48.780;9.212;2023-05-10T02:01:03;97806.53;;;17.07;82.40
19259;BME280;9763;48.780;9.212;2023-05-10T02:04:27;97796.94;;;16.98;82.25
19259;BME280;9763;48.780;9.212;2023-05-10T02:07:53;97820.03;;;17.04;82.34
19259;BME280;9763;48.780;9.212;2023-05-10T02:11:19;97804.69;;;16.99;82.36
19259;BME280;9763;48.780;9.212;2023-05-10T02:14:45;97815.44;;;17.06;82.58
19259;BME280;9763;48.780;9.212;2023-05-10T02:18:12;97816.94;;;17.08;82.18
19259;BME280;9763;48.780;9.212;2023-05-10T02:21:38;97815.97;;;17.09;82.51
19259;BME280;9763;48.780;9.212;2023-05-10T02:25:06;97819.28;;;17.11;82.00
19259;BME280;9763;48.780;9.212;2023-05-10T02:28:32;97828.00;;;17.12;82.35
19259;BME280;9763;48.780;9.212;2023-05-10T02:31:58;97827.19;;;17.11;82.65
19259;BME280;9763;48.780;9.212;2023-05-10T02:35:23;97835.94;;;17.12;82.07
19259;BME280;9763;48.780;9.212;2023-05-10T02:38:51;97838.56;;;17.12;81.99
19259;BME280;9763;48.780;9.212;2023-05-10T02:42:25;97836.59;;;17.14;82.92
19259;BME280;9763;48.780;9.212;2023-05-10T02:45:50;97837.44;;;17.14;82.21
19259;BME280;9763;48.780;9.212;2023-05-10T02:49:14;97832.81;;;17.16;83.05
19259;BME280;9763;48.780;9.212;2023-05-10T02:52:42;97841.09;;;17.21;83.00
19259;BME280;9763;48.780;9.212;2023-05-10T02:56:15;97844.91;;;17.27;82.56
19259;BME280;9763;48.780;9.212;2023-05-10T02:59:44;97838.50;;;17.29;82.44
19259;BME280;9763;48.780;9.212;2023-05-10T03:03:07;97845.44;;;17.31;82.36
19259;BME280;9763;48.780;9.212;2023-05-10T03:06:31;97838.50;;;17.29;82.27
19259;BME280;9763;48.780;9.212;2023-05-10T03:09:57;97839.47;;;17.28;82.87
19259;BME280;9763;48.780;9.212;2023-05-10T03:13:32;97843.78;;;17.29;83.10
19259;BME280;9763;48.780;9.212;2023-05-10T03:17:06;97847.25;;;17.30;82.86
19259;BME280;9763;48.780;9.212;2023-05-10T03:20:41;97850.69;;;17.31;83.01
19259;BME280;9763;48.780;9.212;2023-05-10T03:24:09;97847.91;;;17.32;82.12
19259;BME280;9763;48.780;9.212;2023-05-10T03:27:42;97849.88;;;17.30;82.25
19259;BME280;9763;48.780;9.212;2023-05-10T03:31:07;97851.00;;;17.27;82.44
19259;BME280;9763;48.780;9.212;2023-05-10T03:34:32;97848.38;;;17.27;82.70
19259;BME280;9763;48.780;9.212;2023-05-10T03:37:56;97848.38;;;17.27;82.87
19259;BME280;9763;48.780;9.212;2023-05-10T03:41:20;97855.16;;;17.30;82.83
19259;BME280;9763;48.780;9.212;2023-05-10T03:44:43;97861.56;;;17.27;82.14
19259;BME280;9763;48.780;9.212;2023-05-10T03:48:07;97858.44;;;17.24;82.01
19259;BME280;9763;48.780;9.212;2023-05-10T03:51:32;97856.09;;;17.21;82.43
19259;BME280;9763;48.780;9.212;2023-05-10T03:54:56;97864.97;;;17.20;82.47
19259;BME280;9763;48.780;9.212;2023-05-10T03:58:19;97861.50;;;17.19;82.71
19259;BME280;9763;48.780;9.212;2023-05-10T04:01:44;97860.84;;;17.17;82.92
19259;BME280;9763;48.780;9.212;2023-05-10T04:05:08;97863.81;;;17.14;82.94
19259;BME280;9763;48.780;9.212;2023-05-10T04:08:33;97862.59;;;17.09;82.16
19259;BME280;9763;48.780;9.212;2023-05-10T04:11:58;97865.53;;;17.06;81.96
19259;BME280;9763;48.780;9.212;2023-05-10T04:15:22;97870.94;;;17.04;82.17
19259;BME280;9763;48.780;9.212;2023-05-10T04:18:46;97869.47;;;17.02;81.87
19259;BME280;9763;48.780;9.212;2023-05-10T04:22:10;97866.31;;;16.98;82.30
19259;BME280;9763;48.780;9.212;2023-05-10T04:25:35;97873.38;;;16.98;82.59
19259;BME280;9763;48.780;9.212;2023-05-10T04:28:59;97876.03;;;16.98;82.42
19259;BME280;9763;48.780;9.212;2023-05-10T04:32:22;97874.06;;;17.00;82.65
19259;BME280;9763;48.780;9.212;2023-05-10T04:35:46;97875.59;;;17.02;83.42
19259;BME280;9763;48.780;9.212;2023-05-10T04:39:09;97877.06;;;17.05;82.77
19259;BME280;9763;48.780;9.212;2023-05-10T04:42:35;97878.56;;;17.07;83.39
19259;BME280;9763;48.780;9.212;2023-05-10T04:45:58;97874.28;;;17.06;82.64
19259;BME280;9763;48.780;9.212;2023-05-10T04:49:22;97880.91;;;17.10;83.50
19259;BME280;9763;48.780;9.212;2023-05-10T04:52:45;97888.81;;;17.10;83.35
19259;BME280;9763;48.780;9.212;2023-05-10T04:56:09;97892.13;;;17.12;83.76
19259;BME280;9763;48.780;9.212;2023-05-10T04:59:35;97895.44;;;17.14;83.19
19259;BME280;9763;48.780;9.212;2023-05-10T05:02:59;97895.13;;;17.17;83.84
19259;BME280;9763;48.780;9.212;2023-05-10T05:06:23;97900.09;;;17.20;83.39
19259;BME280;9763;48.780;9.212;2023-05-10T05:09:47;97891.72;;;17.25;84.20
19259;BME280;9763;48.780;9.212;2023-05-10T05:13:12;97893.13;;;17.37;84.34
19259;BME280;9763;48.780;9.212;2023-05-10T05:16:37;97895.50;;;17.48;84.79
19259;BME280;9763;48.780;9.212;2023-05-10T05:20:01;97904.22;;;17.67;85.63
19259;BME280;9763;48.780;9.212;2023-05-10T05:23:25;97910.69;;;17.72;84.85
19259;BME280;9763;48.780;9.212;2023-05-10T05:26:49;97905.59;;;17.79;84.53
19259;BME280;9763;48.780;9.212;2023-05-10T05:30:12;97907.78;;;17.83;84.22
19259;BME280;9763;48.780;9.212;2023-05-10T05:33:38;97912.91;;;17.85;83.44
19259;BME280;9763;48.780;9.212;2023-05-10T05:37:01;97911.94;;;17.86;84.06
19259;BME280;9763;48.780;9.212;2023-05-10T05:40:25;97907.81;;;17.91;84.34
19259;BME280;9763;48.780;9.212;2023-05-10T05:43:49;97916.59;;;18.00;84.12
19259;BME280;9763;48.780;9.212;2023-05-10T05:47:12;97917.94;;;18.04;83.78
19259;BME280;9763;48.780;9.212;2023-05-10T05:50:37;97929.16;;;18.06;84.03
19259;BME280;9763;48.780;9.212;2023-05-10T05:54:01;97923.59;;;18.09;83.75
19259;BME280;9763;48.780;9.212;2023-05-10T05:57:26;97926.41;;;18.16;84.02
19259;BME280;9763;48.780;9.212;2023-05-10T06:00:50;97937.50;;;18.27;83.70
19259;BME280;9763;48.780;9.212;2023-05-10T06:04:14;97928.31;;;18.40;83.44
19259;BME280;9763;48.780;9.212;2023-05-10T06:07:39;97928.81;;;18.51;83.13
19259;BME280;9763;48.780;9.212;2023-05-10T06:11:04;97930.22;;;18.63;82.80
19259;BME280;9763;48.780;9.212;2023-05-10T06:14:28;97930.72;;;18.75;83.08
19259;BME280;9763;48.780;9.212;2023-05-10T06:17:51;97943.63;;;18.86;82.78
19259;BME280;9763;48.780;9.212;2023-05-10T06:21:15;97942.31;;;18.90;82.12
19259;BME280;9763;48.780;9.212;2023-05-10T06:24:40;97947.44;;;19.00;82.19
19259;BME280;9763;48.780;9.212;2023-05-10T06:28:03;97950.94;;;19.08;82.52
19259;BME280;9763;48.780;9.212;2023-05-10T06:31:27;97944.84;;;19.16;82.17
19259;BME280;9763;48.780;9.212;2023-05-10T06:34:50;97958.22;;;19.23;82.07
19259;BME280;9763;48.780;9.212;2023-05-10T06:38:14;97950.94;;;19.25;81.72
19259;BME280;9763;48.780;9.212;2023-05-10T06:41:39;97962.50;;;19.24;81.41
19259;BME280;9763;48.780;9.212;2023-05-10T06:45:03;97961.34;;;19.10;80.99
19259;BME280;9763;48.780;9.212;2023-05-10T06:48:27;97960.53;;;18.93;80.66
19259;BME280;9763;48.780;9.212;2023-05-10T06:51:51;97955.34;;;18.76;81.75
19259;BME280;9763;48.780;9.212;2023-05-10T06:55:14;97954.69;;;18.65;82.19
19259;BME280;9763;48.780;9.212;2023-05-10T06:58:40;97963.44;;;18.66;82.17
19259;BME280;9763;48.780;9.212;2023-05-10T07:02:04;97962.59;;;18.65;81.86
19259;BME280;9763;48.780;9.212;2023-05-10T07:05:27;97957.16;;;18.67;81.52
19259;BME280;9763;48.780;9.212;2023-05-10T07:08:52;97964.41;;;18.65;81.34
19259;BME280;9763;48.780;9.212;2023-05-10T07:12:15;97962.13;;;18.70;81.39
19259;BME280;9763;48.780;9.212;2023-05-10T07:15:40;97968.09;;;18.88;81.38
19259;BME280;9763;48.780;9.212;2023-05-10T07:19:04;97973.59;;;19.11;81.08
19259;BME280;9763;48.780;9.212;2023-05-10T07:22:28;97966.00;;;19.40;81.47
19259;BME280;9763;48.780;9.212;2023-05-10T07:25:52;97958.88;;;19.73;80.94
19259;BME280;9763;48.780;9.212;2023-05-10T07:29:15;97969.38;;;20.06;81.04
19259;BME280;9763;48.780;9.212;2023-05-10T07:32:40;97960.72;;;20.36;80.61
19259;BME280;9763;48.780;9.212;2023-05-10T07:36:05;97966.53;;;20.63;80.30
19259;BME280;9763;48.780;9.212;2023-05-10T07:39:29;97971.41;;;20.82;80.24
19259;BME280;9763;48.780;9.212;2023-05-10T07:42:52;97957.56;;;20.95;79.33
19259;BME280;9763;48.780;9.212;2023-05-10T07:46:15;97973.25;;;21.04;79.36
19259;BME280;9763;48.780;9.212;2023-05-10T07:49:40;97976.38;;;21.08;79.12
19259;BME280;9763;48.780;9.212;2023-05-10T07:53:04;97975.03;;;21.12;78.61
19259;BME280;9763;48.780;9.212;2023-05-10T07:56:30;97980.03;;;21.07;77.84
19259;BME280;9763;48.780;9.212;2023-05-10T07:59:54;97974.97;;;20.97;77.15
19259;BME280;9763;48.780;9.212;2023-05-10T08:03:18;97979.97;;;20.92;77.53
19259;BME280;9763;48.780;9.212;2023-05-10T08:06:43;97983.31;;;20.86;76.58
19259;BME280;9763;48.780;9.212;2023-05-10T08:10:08;97982.25;;;20.72;76.23
19259;BME280;9763;48.780;9.212;2023-05-10T08:13:33;97977.31;;;20.61;76.32
19259;BME280;9763;48.780;9.212;2023-05-10T08:16:57;97975.22;;;20.48;76.27
19259;BME280;9763;48.780;9.212;2023-05-10T08:20:20;97983.72;;;20.36;76.42
19259;BME280;9763;48.780;9.212;2023-05-10T08:23:45;97987.69;;;20.32;76.67
19259;BME280;9763;48.780;9.212;2023-05-10T08:27:09;97980.91;;;20.29;77.33
19259;BME280;9763;48.780;9.212;2023-05-10T08:30:32;97991.81;;;20.34;76.57
19259;BME280;9763;48.780;9.212;2023-05-10T08:33:56;97987.69;;;20.32;76.40
19259;BME280;9763;48.780;9.212;2023-05-10T08:37:19;97999.31;;;20.23;76.41
19259;BME280;9763;48.780;9.212;2023-05-10T08:40:45;97991.88;;;20.18;77.04
19259;BME280;9763;48.780;9.212;2023-05-10T08:44:09;97999.81;;;20.18;76.53
19259;BME280;9763;48.780;9.212;2023-05-10T08:47:37;97997.88;;;20.12;77.08
19259;BME280;9763;48.780;9.212;2023-05-10T08:51:02;97987.78;;;19.99;77.22
19259;BME280;9763;48.780;9.212;2023-05-10T08:54:27;98011.97;;;20.04;77.46
19259;BME280;9763;48.780;9.212;2023-05-10T08:57:53;97985.16;;;19.99;77.61
19259;BME280;9763;48.780;9.212;2023-05-10T09:01:18;98009.09;;;20.38;77.40
19259;BME280;9763;48.780;9.212;2023-05-10T09:04:41;98009.94;;;20.70;77.61
19259;BME280;9763;48.780;9.212;2023-05-10T09:08:06;98017.00;;;20.85;76.54
19259;BME280;9763;48.780;9.212;2023-05-10T09:11:31;97999.19;;;20.94;77.06
19259;BME280;9763;48.780;9.212;2023-05-10T09:14:59;98010.44;;;21.27;76.22
19259;BME280;9763;48.780;9.212;2023-05-10T09:18:23;98010.22;;;21.37;76.42
19259;BME280;9763;48.780;9.212;2023-05-10T09:21:49;98017.47;;;21.43;76.36
19259;BME280;9763;48.780;9.212;2023-05-10T09:25:14;98000.94;;;21.33;74.88
19259;BME280;9763;48.780;9.212;2023-05-10T09:28:52;98013.00;;;21.20;73.08
19259;BME280;9763;48.780;9.212;2023-05-10T09:32:17;98014.09;;;20.95;73.47
19259;BME280;9763;48.780;9.212;2023-05-10T09:35:40;98023.50;;;20.75;73.53
19259;BME280;9763;48.780;9.212;2023-05-10T09:39:05;98028.84;;;20.67;nan
19259;BME280;9763;48.780;9.212;2023-05-10T09:42:28;98027.63;;;20.77;74.25
19259;BME280;9763;48.780;9.212;2023-05-10T09:45:52;98027.03;;;20.98;74.45
19259;BME280;9763;48.780;9.212;2023-05-10T09:49:17;98017.94;;;21.24;74.63
19259;BME280;9763;48.780;9.212;2023-05-10T09:52:48;98028.31;;;21.56;74.22
19259;BME280;9763;48.780;9.212;2023-05-10T09:56:12;98028.53;;;21.69;73.47
19259;BME280;9763;48.780;9.212;2023-05-10T09:59:43;98017.47;;;21.80;72.89
19259;BME280;9763;48.780;9.212;2023-05-10T10:03:13;98027.84;;;21.90;71.55
19259;BME280;9763;48.780;9.212;2023-05-10T10:06:39;98015.91;;;21.86;72.71
19259;BME280;9763;48.780;9.212;2023-05-10T10:10:04;98023.19;;;21.92;73.26
19259;BME280;9763;48.780;9.212;2023-05-10T10:13:33;98029.47;;;21.76;71.55
19259;BME280;9763;48.780;9.212;2023-05-10T10:17:00;98025.50;;;21.58;72.85
19259;BME280;9763;48.780;9.212;2023-05-10T10:20:28;98022.25;;;21.47;73.43
19259;BME280;9763;48.780;9.212;2023-05-10T10:23:53;98021.84;;;21.36;72.35
19259;BME280;9763;48.780;9.212;2023-05-10T10:27:24;98013.66;;;21.23;72.16
19259;BME280;9763;48.780;9.212;2023-05-10T10:30:52;98021.03;;;21.35;72.22
19259;BME280;9763;48.780;9.212;2023-05-10T10:34:26;98010.72;;;21.55;71.70
19259;BME280;9763;48.780;9.212;2023-05-10T10:37:51;98018.41;;;21.87;71.13
19259;BME280;9763;48.780;9.212;2023-05-10T10:41:33;98018.94;;;22.20;71.73
19259;BME280;9763;48.780;9.212;2023-05-10T10:45:12;98006.56;;;22.27;70.51
19259;BME280;9763;48.780;9.212;2023-05-10T10:48:36;98021.69;;;22.12;70.43
19259;BME280;9763;48.780;9.212;2023-05-10T10:52:21;98004.50;;;21.85;70.30
19259;BME280;9763;48.780;9.212;2023-05-10T10:55:46;98019.63;;;21.62;68.75
19259;BME280;9763;48.780;9.212;2023-05-10T10:59:12;98019.53;;;21.33;69.39
19259;BME280;9763;48.780;9.212;2023-05-10T11:02:44;98023.00;;;21.02;68.37
19259;BME280;9763;48.780;9.212;2023-05-10T11:06:10;98019.88;;;20.76;67.23
19259;BME280;9763;48.780;9.212;2023-05-10T11:09:39;98014.84;;;20.42;66.92
19259;BME280;9763;48.780;9.212;2023-05-10T11:13:07;98043.06;;;20.27;66.91
19259;BME280;9763;48.780;9.212;2023-05-10T11:16:41;98038.94;;;20.08;66.33
19259;BME280;9763;48.780;9.212;2023-05-10T11:20:10;98036.97;;;19.94;66.14
19259;BME280;9763;48.780;9.212;2023-05-10T11:23:50;98046.75;;;19.85;66.65
19259;BME280;9763;48.780;9.212;2023-05-10T11:27:13;98026.22;;;19.71;67.55
19259;BME280;9763;48.780;9.212;2023-05-10T11:30:38;98034.00;;;19.89;68.59
19259;BME280;9763;48.780;9.212;2023-05-10T11:34:04;98042.44;;;20.00;68.31
19259;BME280;9763;48.780;9.212;2023-05-10T11:37:28;98042.09;;;20.11;68.76
19259;BME280;9763;48.780;9.212;2023-05-10T11:40:54;98043.53;;;20.38;68.85
19259;BME280;9763;48.780;9.212;2023-05-10T11:44:18;98045.13;;;20.64;68.18
19259;BME280;9763;48.780;9.212;2023-05-10T11:47:42;98042.88;;;20.83;67.59
19259;BME280;9763;48.780;9.212;2023-05-10T11:51:08;98049.59;;;20.94;67.76
19259;BME280;9763;48.780;9.212;2023-05-10T11:54:32;98056.41;;;20.97;67.91
19259;BME280;9763;48.780;9.212;2023-05-10T11:58:01;98054.97;;;20.86;65.96
19259;BME280;9763;48.780;9.212;2023-05-10T12:01:27;98068.25;;;20.78;66.48
19259;BME280;9763;48.780;9.212;2023-05-10T12:04:51;98069.00;;;20.64;65.37
19259;BME280;9763;48.780;9.212;2023-05-10T12:08:21;98091.06;;;20.48;65.15
19259;BME280;9763;48.780;9.212;2023-05-10T12:11:45;98080.50;;;20.40;66.02
19259;BME280;9763;48.780;9.212;2023-05-10T12:15:17;98071.84;;;20.30;66.13
19259;BME280;9763;48.780;9.212;2023-05-10T12:18:41;98088.44;;;20.40;66.57
19259;BME280;9763;48.780;9.212;2023-05-10T12:22:05;98094.72;;;20.47;66.21
19259;BME280;9763;48.780;9.212;2023-05-10T12:25:32;98086.06;;;20.53;65.91
19259;BME280;9763;48.780;9.212;2023-05-10T12:29:13;98094.19;;;20.60;65.24
19259;BME280;9763;48.780;9.212;2023-05-10T12:32:39;98097.13;;;20.73;66.23
19259;BME280;9763;48.780;9.212;2023-05-10T12:36:03;98093.22;;;20.92;65.73
19259;BME280;9763;48.780;9.212;2023-05-10T12:39:39;98079.38;;;21.12;65.75
19259;BME280;9763;48.780;9.212;2023-05-10T12:43:04;98079.78;;;21.32;66.33
19259;BME280;9763;48.780;9.212;2023-05-10T12:46:28;98087.66;;;21.48;65.46
19259;BME280;9763;48.780;9.212;2023-05-10T12:49:51;98090.09;;;21.50;65.79
19259;BME280;9763;48.780;9.212;2023-05-10T12:53:16;98091.47;;;21.46;65.73
19259;BME280;9763;48.780;9.212;2023-05-10T12:56:39;98085.19;;;21.39;64.61
19259;BME280;9763;48.780;9.212;2023-05-10T13:00:08;98087.91;;;21.31;65.10
19259;BME280;9763;48.780;9.212;2023-05-10T13:03:32;98089.16;;;21.20;64.89
19259;BME280;9763;48.780;9.212;2023-05-10T13:06:55;98081.22;;;21.04;65.86
19259;BME280;9763;48.780;9.212;2023-05-10T13:10:21;98084.31;;;20.84;66.08
19259;BME280;9763;48.780;9.212;2023-05-10T13:13:45;98092.78;;;20.80;66.51
19259;BME280;9763;48.780;9.212;2023-05-10T13:17:10;98083.06;;;20.64;65.63
19259;BME280;9763;48.780;9.212;2023-05-10T13:20:34;98087.09;;;20.52;66.52
19259;BME280;9763;48.780;9.212;2023-05-10T13:23:58;98089.59;;;20.45;66.96
19259;BME280;9763;48.780;9.212;2023-05-10T13:27:22;98080.31;;;20.49;66.74
19259;BME280;9763;48.780;9.212;2023-05-10T13:30:46;98089.00;;;20.74;67.42
19259;BME280;9763;48.780;9.212;2023-05-10T13:34:11;98082.72;;;21.06;67.51
19259;BME280;9763;48.780;9.212;2023-05-10T13:37:34;98075.88;;;21.43;67.48
19259;BME280;9763;48.780;9.212;2023-05-10T13:40:59;98070.72;;;21.72;67.07
19259;BME280;9763;48.780;9.212;2023-05-10T13:44:22;98083.84;;;21.88;67.02
19259;BME280;9763;48.780;9.212;2023-05-10T13:47:46;98063.19;;;21.99;66.98
19259;BME280;9763;48.780;9.212;2023-05-10T13:51:11;98066.66;;;21.99;66.96
19259;BME280;9763;48.780;9.212;2023-05-10T13:54:35;98065.53;;;21.93;67.07
19259;BME280;9763;48.780;9.212;2023-05-10T13:57:59;98061.75;;;21.88;67.20
19259;BME280;9763;48.780;9.212;2023-05-10T14:01:22;98064.50;;;21.80;67.10
19259;BME280;9763;48.780;9.212;2023-05-10T14:04:46;98058.88;;;21.75;66.98
19259;BME280;9763;48.780;9.212;2023-05-10T14:08:11;98050.44;;;21.71;66.77
19259;BME280;9763;48.780;9.212;2023-05-10T14:11:36;98050.53;;;21.78;67.12
19259;BME280;9763;48.780;9.212;2023-05-10T14:15:04;98054.97;;;21.85;66.32
19259;BME280;9763;48.780;9.212;2023-05-10T14:18:29;98053.59;;;21.89;65.73
19259;BME280;9763;48.780;9.212;2023-05-10T14:21:52;98056.25;;;21.89;65.39
19259;BME280;9763;48.780;9.212;2023-05-10T14:25:17;98052.13;;;21.87;65.79
19259;BME280;9763;48.780;9.212;2023-05-10T14:28:41;98056.44;;;21.88;65.78
19259;BME280;9763;48.780;9.212;2023-05-10T14:32:05;98052.06;;;21.95;66.25
19259;BME280;9763;48.780;9.212;2023-05-10T14:35:29;98048.00;;;22.07;65.88
19259;BME280;9763;48.780;9.212;2023-05-10T14:38:54;98051.69;;;22.21;64.21
19259;BME280;9763;48.780;9.212;2023-05-10T14:42:19;98051.47;;;22.22;64.85
19259;BME280;9763;48.780;9.212;2023-05-10T14:45:43;98051.88;;;22.19;64.10
19259;BME280;9763;48.780;9.212;2023-05-10T14:49:07;97969.97;;;21.63;63.25
19259;BME280;9763;48.780;9.212;2023-05-10T14:52:31;98052.00;;;22.03;63.80
19259;BME280;9763;48.780;9.212;2023-05-10T14:55:55;98038.97;;;21.93;64.47
19259;BME280;9763;48.780;9.212;2023-05-10T14:59:20;98059.66;;;21.98;64.89
19259;BME280;9763;48.780;9.212;2023-05-10T15:02:44;98042.31;;;21.87;64.96
19259;BME280;9763;48.780;9.212;2023-05-10T15:06:09;98047.94;;;21.92;64.58
19259;BME280;9763;48.780;9.212;2023-05-10T15:09:32;98050.53;;;22.01;65.18
19259;BME280;9763;48.780;9.212;2023-05-10T15:12:56;98040.66;;;22.09;65.54
19259;BME280;9763;48.780;9.212;2023-05-10T15:16:21;98046.00;;;22.09;64.86
19259;BME280;9763;48.780;9.212;2023-05-10T15:19:44;98044.94;;;22.10;65.59
19259;BME280;9763;48.780;9.212;2023-05-10T15:23:08;98053.13;;;22.09;65.22
19259;BME280;9763;48.780;9.212;2023-05-10T15:26:32;98048.59;;;21.95;65.12
19259;BME280;9763;48.780;9.212;2023-05-10T15:29:55;98055.44;;;21.89;65.21
19259;BME280;9763;48.780;9.212;2023-05-10T15:33:20;98057.16;;;21.82;65.12
19259;BME280;9763;48.780;9.212;2023-05-10T15:36:44;98060.19;;;21.79;64.49
19259;BME280;9763;48.780;9.212;2023-05-10T15:40:09;98052.28;;;21.71;65.14
19259;BME280;9763;48.780;9.212;2023-05-10T15:43:33;98059.16;;;21.80;65.44
19259;BME280;9763;48.780;9.212;2023-05-10T15:46:56;98059.25;;;21.86;65.79
19259;BME280;9763;48.780;9.212;2023-05-10T15:50:21;98058.25;;;21.87;65.63
19259;BME280;9763;48.780;9.212;2023-05-10T15:53:44;98067.84;;;21.97;66.20
19259;BME280;9763;48.780;9.212;2023-05-10T15:57:28;98065.53;;;21.93;65.40
19259;BME280;9763;48.780;9.212;2023-05-10T16:00:52;98069.28;;;21.84;64.25
19259;BME280;9763;48.780;9.212;2023-05-10T16:04:15;98049.56;;;21.56;64.32
19259;BME280;9763;48.780;9.212;2023-05-10T16:07:41;98067.00;;;21.59;64.83
19259;BME280;9763;48.780;9.212;2023-05-10T16:11:06;98070.22;;;21.46;65.08
19259;BME280;9763;48.780;9.212;2023-05-10T16:14:30;98073.06;;;21.44;64.37
19259;BME280;9763;48.780;9.212;2023-05-10T16:17:54;98066.69;;;21.31;64.48
19259;BME280;9763;48.780;9.212;2023-05-10T16:21:18;98076.81;;;21.27;64.18
19259;BME280;9763;48.780;9.212;2023-05-10T16:24:43;98076.03;;;21.18;63.89
19259;BME280;9763;48.780;9.212;2023-05-10T16:28:07;98079.72;;;21.09;63.57
19259;BME280;9763;48.780;9.212;2023-05-10T16:31:30;98085.53;;;21.05;64.07
19259;BME280;9763;48.780;9.212;2023-05-10T16:34:54;98072.16;;;20.98;63.96
19259;BME280;9763;48.780;9.212;2023-05-10T16:38:18;98083.41;;;21.00;64.95
19259;BME280;9763;48.780;9.212;2023-05-10T16:41:44;98083.22;;;21.02;65.19
19259;BME280;9763;48.780;9.212;2023-05-10T16:45:08;98081.59;;;21.01;64.61
19259;BME280;9763;48.780;9.212;2023-05-10T16:48:32;98081.75;;;20.99;65.21
19259;BME280;9763;48.780;9.212;2023-05-10T16:51:55;98078.63;;;20.96;65.19
19259;BME280;9763;48.780;9.212;2023-05-10T16:55:19;98092.56;;;20.98;65.07
19259;BME280;9763;48.780;9.212;2023-05-10T16:58:48;98095.53;;;20.95;65.29
19259;BME280;9763;48.780;9.212;2023-05-10T17:02:12;98093.75;;;20.87;64.94
19259;BME280;9763;48.780;9.212;2023-05-10T17:05:36;98098.09;;;20.80;65.51
19259;BME280;9763;48.780;9.212;2023-05-10T17:09:00;98105.91;;;20.73;65.45
19259;BME280;9763;48.780;9.212;2023-05-10T17:12:25;98100.44;;;20.67;65.50
19259;BME280;9763;48.780;9.212;2023-05-10T17:15:50;98103.81;;;20.61;65.66
19259;BME280;9763;48.780;9.212;2023-05-10T17:19:13;98102.81;;;20.54;66.26
19259;BME280;9763;48.780;9.212;2023-05-10T17:22:37;98106.31;;;20.46;65.58
19259;BME280;9763;48.780;9.212;2023-05-10T17:26:03;98107.19;;;20.38;66.30
19259;BME280;9763;48.780;9.212;2023-05-10T17:29:27;98107.81;;;20.32;66.28
19259;BME280;9763;48.780;9.212;2023-05-10T17:32:52;98107.81;;;20.24;65.92
19259;BME280;9763;48.780;9.212;2023-05-10T17:36:15;98108.66;;;20.17;66.31
19259;BME280;9763;48.780;9.212;2023-05-10T17:39:39;98117.44;;;20.09;66.42
19259;BME280;9763;48.780;9.212;2023-05-10T17:43:02;98112.63;;;19.96;67.01
19259;BME280;9763;48.780;9.212;2023-05-10T17:46:26;98115.63;;;19.77;66.38
19259;BME280;9763;48.780;9.212;2023-05-10T17:49:51;98108.50;;;19.69;66.87
19259;BME280;9763;48.780;9.212;2023-05-10T17:53:15;98119.75;;;19.63;67.83
19259;BME280;9763;48.780;9.212;2023-05-10T17:56:38;98126.69;;;19.56;67.97
19259;BME280;9763;48.780;9.212;2023-05-10T18:00:02;98127.69;;;19.55;67.81
19259;BME280;9763;48.780;9.212;2023-05-10T18:03:27;98130.00;;;19.58;67.65
19259;BME280;9763;48.780;9.212;2023-05-10T18:06:52;98137.94;;;19.58;67.52
19259;BME280;9763;48.780;9.212;2023-05-10T18:10:23;98131.97;;;19.56;67.36
19259;BME280;9763;48.780;9.212;2023-05-10T18:13:48;98128.69;;;19.54;68.27
19259;BME280;9763;48.780;9.212;2023-05-10T18:17:11;98127.63;;;19.47;67.70
19259;BME280;9763;48.780;9.212;2023-05-10T18:20:35;98124.31;;;19.37;67.90
19259;BME280;9763;48.780;9.212;2023-05-10T18:24:00;98133.38;;;19.34;67.98